Main page
METAR-TAF:

METAR-TAF

Airports :

RAF Fairford

Fairford, England

latitude: 51-41N, longitude: 001-47W, elevation: 87 m

Current weather observation

The report was made 50 minutes ago, at 07:11 UTC
Wind 4 kt from the Northeast
Temperature 1°C
Humidity 93%
Pressure 1015 hPa
Scattered clouds at a height of 1200 ft

METAR: EGVA 200711Z AUTO 05004KT M M SCT012 01/00 A2996 RMK AO2 SLP153 RVRNO $

Time: 08:01 (08:01 UTC)


TAF: missing

Weather observations and forecasts of more than 4000 airports (METAR and TAF reports).

The available stations are represented by yellow and red dots on the map.

Hover mouse over dot to see the name of the station.

Then click to see weather observations and forecasts.

To change the map : click on the green buttons with a black cross to zoom in, on the green button with a dash to zoom out, or on the green arrows for adjacent maps.


METAR-TAF: